Time;durP1;ratioP1;P1;durP2;ratioP2;P2;SDS_P1;SDS_P2;PMS_P1;PMS_P2;Temp;Humidity;BMP_temperature;BMP_pressure;BME280_temperature;BME280_humidity;BME280_pressure;Samples;Min_cycle;Max_cycle;Signal;HPM_P1;HPM_P2
2022/01/21 00:00:44;;;;;;;;;;;;;;;;;;4348669;33;19946;-71
2022/01/21 00:03:09;;;;;;;;;;;;;;;;;;4345613;33;20061;-71
2022/01/21 00:05:34;;;;;;;;;;;;;;;;;;4346703;33;19935;-70
2022/01/21 00:07:59;;;;;;;;;;;;;;;;;;4345392;33;19939;-70
2022/01/21 00:10:24;;;;;;;;;;;;;;;;;;4345519;33;19966;-70
2022/01/21 00:12:52;;;;;;;;;;;;;;;;;;4346939;33;19954;-70
2022/01/21 00:15:18;;;;;;;;;;;;;;;;;;4348133;32;19939;-70
2022/01/21 00:17:43;;;;;;;;;;;;;;;;;;4347360;33;20028;-70
2022/01/21 00:31:04;;;;;;;;;;;;;;;;;;4348129;33;19954;-71
2022/01/21 00:33:29;;;;;;;;;;;;;;;;;;4334302;33;19938;-71
2022/01/21 00:35:54;;;;;;;;;;;;;;;;;;4347999;33;19939;-71
2022/01/21 00:38:21;;;;;;;;;;;;;;;;;;4347827;33;19945;-71
2022/01/21 00:40:46;;;;;;;;;;;;;;;;;;4346751;33;19939;-70
2022/01/21 00:45:42;;;;;;;;;;;;;;;;;;4348066;33;20317;-70
2022/01/21 00:48:08;;;;;;;;;;;;;;;;;;4333093;33;19957;-72
2022/01/21 00:50:33;;;;;;;;;;;;;;;;;;4332901;33;19947;-71
2022/01/21 00:52:58;;;;;;;;;;;;;;;;;;4346269;33;19972;-70
2022/01/21 00:55:23;;;;;;;;;;;;;;;;;;4346777;33;20269;-70
2022/01/21 00:57:48;;;;;;;;;;;;;;;;;;4346141;33;19935;-70
2022/01/21 01:00:13;;;;;;;;;;;;;;;;;;4346255;33;19993;-71
2022/01/21 01:02:38;;;;;;;;;;;;;;;;;;4339380;33;19958;-70
2022/01/21 01:05:03;;;;;;;;;;;;;;;;;;4318144;33;20073;-71
2022/01/21 01:07:28;;;;;;;;;;;;;;;;;;4318828;33;19946;-70
2022/01/21 01:09:56;;;;;;;;;;;;;;;;;;4319075;33;19950;-71
2022/01/21 01:20:26;;;;;;;;;;;;;;;;;;4338771;33;20071;-71
2022/01/21 01:23:02;;;;;;;;;;;;;;;;;;4331244;33;19946;-70
2022/01/21 01:28:11;;;;;;;;;;;;;;;;;;4346744;33;19965;-70
2022/01/21 01:30:36;;;;;;;;;;;;;;;;;;4346259;33;20293;-71
2022/01/21 01:33:02;;;;;;;;;;;;;;;;;;4346066;33;20311;-71
2022/01/21 01:35:29;;;;;;;;;;;;;;;;;;4345507;33;19934;-70
2022/01/21 01:51:07;;;;;;;;;;;;;;;;;;4346967;33;19998;-68
2022/01/21 01:53:32;;;;;;;;;;;;;;;;;;4344407;33;19938;-69
2022/01/21 01:55:58;;;;;;;;;;;;;;;;;;4345330;33;20308;-69
2022/01/21 01:58:23;;;;;;;;;;;;;;;;;;4345709;33;19946;-70
2022/01/21 02:00:48;;;;;;;;;;;;;;;;;;4346978;33;19957;-69
2022/01/21 02:03:16;;;;;;;;;;;;;;;;;;4346073;33;19943;-70
2022/01/21 02:05:41;;;;;;;;;;;;;;;;;;4345115;33;19966;-69
2022/01/21 02:08:06;;;;;;;;;;;;;;;;;;4346014;33;19989;-69
2022/01/21 02:10:31;;;;;;;;;;;;;;;;;;4344117;33;20004;-70
2022/01/21 02:13:05;;;;;;;;;;;;;;;;;;4346275;33;19934;-69
2022/01/21 02:15:34;;;;;;;;;;;;;;;;;;4346805;33;20331;-70
2022/01/21 02:23:26;;;;;;;;;;;;;;;;;;4345623;33;19945;-70
2022/01/21 02:25:52;;;;;;;;;;;;;;;;;;4346843;33;19951;-69
2022/01/21 02:28:18;;;;;;;;;;;;;;;;;;4346414;33;20321;-70
2022/01/21 02:30:43;;;;;;;;;;;;;;;;;;4358060;32;19931;-69
2022/01/21 02:33:08;;;;;;;;;;;;;;;;;;4345257;33;19969;-70
2022/01/21 02:35:33;;;;;;;;;;;;;;;;;;4347229;33;19935;-70
2022/01/21 02:38:00;;;;;;;;;;;;;;;;;;4345295;33;19935;-70
2022/01/21 02:40:27;;;;;;;;;;;;;;;;;;4345803;33;20316;-70
2022/01/21 02:42:52;;;;;;;;;;;;;;;;;;4346935;33;19994;-69
2022/01/21 02:45:17;;;;;;;;;;;;;;;;;;4346142;33;19969;-70
2022/01/21 02:47:43;;;;;;;;;;;;;;;;;;4343921;33;20237;-69
2022/01/21 02:50:10;;;;;;;;;;;;;;;;;;4345695;33;19977;-69
2022/01/21 02:52:42;;;;;;;;;;;;;;;;;;4346523;33;19943;-70
2022/01/21 02:55:07;;;;;;;;;;;;;;;;;;4346362;33;20263;-70
2022/01/21 02:57:32;;;;;;;;;;;;;;;;;;4347612;33;20245;-69
2022/01/21 02:59:57;;;;;;;;;;;;;;;;;;4346443;33;19935;-69
2022/01/21 03:02:22;;;;;;;;;;;;;;;;;;4347501;33;19951;-69
2022/01/21 03:05:03;;;;;;;;;;;;;;;;;;4349219;33;19935;-70
2022/01/21 03:07:28;;;;;;;;;;;;;;;;;;4348340;33;19941;-69
2022/01/21 03:09:53;;;;;;;;;;;;;;;;;;4346531;33;19939;-70
2022/01/21 03:12:18;;;;;;;;;;;;;;;;;;4347338;33;20321;-69
2022/01/21 03:14:43;;;;;;;;;;;;;;;;;;4359759;32;19949;-69
2022/01/21 03:17:08;;;;;;;;;;;;;;;;;;4347949;33;19931;-70
2022/01/21 03:19:33;;;;;;;;;;;;;;;;;;4349553;33;19955;-70
2022/01/21 03:21:58;;;;;;;;;;;;;;;;;;4349084;33;19938;-70
2022/01/21 03:24:23;;;;;;;;;;;;;;;;;;4347462;33;19975;-69
2022/01/21 03:26:49;;;;;;;;;;;;;;;;;;4348205;33;20002;-70
2022/01/21 03:29:14;;;;;;;;;;;;;;;;;;4348199;33;19965;-70
2022/01/21 03:31:39;;;;;;;;;;;;;;;;;;4347455;33;19996;-70
2022/01/21 03:34:04;;;;;;;;;;;;;;;;;;4348226;33;19963;-70
2022/01/21 03:36:29;;;;;;;;;;;;;;;;;;4347803;33;19986;-69
2022/01/21 03:38:54;;;;;;;;;;;;;;;;;;4348623;33;19950;-70
2022/01/21 03:41:19;;;;;;;;;;;;;;;;;;4349165;33;19945;-70
2022/01/21 03:43:44;;;;;;;;;;;;;;;;;;4348056;33;20002;-70
2022/01/21 03:46:09;;;;;;;;;;;;;;;;;;4347782;33;19939;-69
2022/01/21 03:48:35;;;;;;;;;;;;;;;;;;4348671;32;19969;-69
2022/01/21 03:51:00;;;;;;;;;;;;;;;;;;4348848;33;19987;-70
2022/01/21 03:53:25;;;;;;;;;;;;;;;;;;4348790;33;19966;-69
2022/01/21 03:55:50;;;;;;;;;;;;;;;;;;4348096;33;20279;-70
2022/01/21 03:58:15;;;;;;;;;;;;;;;;;;4346669;33;19938;-69
2022/01/21 04:00:40;;;;;;;;;;;;;;;;;;4349064;33;19935;-69
2022/01/21 04:03:05;;;;;;;;;;;;;;;;;;4346145;33;19943;-70
2022/01/21 04:05:30;;;;;;;;;;;;;;;;;;4346659;33;19982;-70
2022/01/21 04:07:55;;;;;;;;;;;;;;;;;;4348094;33;19934;-69
2022/01/21 04:10:20;;;;;;;;;;;;;;;;;;4348723;33;19935;-69
2022/01/21 04:12:46;;;;;;;;;;;;;;;;;;4348482;33;19953;-70
2022/01/21 04:15:11;;;;;;;;;;;;;;;;;;4347693;33;20394;-70
2022/01/21 04:17:36;;;;;;;;;;;;;;;;;;4347438;33;19993;-70
2022/01/21 04:20:01;;;;;;;;;;;;;;;;;;4345390;33;19938;-69
2022/01/21 04:22:26;;;;;;;;;;;;;;;;;;4346483;33;19961;-69
2022/01/21 04:24:51;;;;;;;;;;;;;;;;;;4346565;33;20320;-69
2022/01/21 04:27:16;;;;;;;;;;;;;;;;;;4346560;33;19942;-69
2022/01/21 04:29:41;;;;;;;;;;;;;;;;;;4347420;33;20012;-69
2022/01/21 04:32:06;;;;;;;;;;;;;;;;;;4346971;33;19969;-70
2022/01/21 04:34:31;;;;;;;;;;;;;;;;;;4347351;33;20389;-70
2022/01/21 04:36:57;;;;;;;;;;;;;;;;;;4346772;33;20270;-70
2022/01/21 04:39:28;;;;;;;;;;;;;;;;;;4348212;33;20308;-70
2022/01/21 04:47:17;;;;;;;;;;;;;;;;;;4345242;33;19946;-70
2022/01/21 04:47:23;;;;;;;;;;;;;;;;;;4347753;33;19966;-70
2022/01/21 04:49:48;;;;;;;;;;;;;;;;;;4347330;32;20303;-69
2022/01/21 04:52:13;;;;;;;;;;;;;;;;;;4346080;33;19938;-70
2022/01/21 04:54:38;;;;;;;;;;;;;;;;;;4348288;33;19946;-69
2022/01/21 04:57:03;;;;;;;;;;;;;;;;;;4346466;33;19951;-69
2022/01/21 04:59:28;;;;;;;;;;;;;;;;;;4345588;33;19961;-70
2022/01/21 05:01:53;;;;;;;;;;;;;;;;;;4348437;33;19978;-70
2022/01/21 05:04:19;;;;;;;;;;;;;;;;;;4347714;32;19957;-70
2022/01/21 05:06:44;;;;;;;;;;;;;;;;;;4346776;33;19950;-70
2022/01/21 05:09:09;;;;;;;;;;;;;;;;;;4347702;33;19973;-69
2022/01/21 05:11:37;;;;;;;;;;;;;;;;;;4347405;33;20334;-69
2022/01/21 05:14:15;;;;;;;;;;;;;;;;;;4346895;32;20344;-70
2022/01/21 05:16:46;;;;;;;;;;;;;;;;;;4345874;33;19931;-71
2022/01/21 05:19:15;;;;;;;;;;;;;;;;;;4346389;33;19970;-70
2022/01/21 05:21:40;;;;;;;;;;;;;;;;;;4346617;33;19965;-69
2022/01/21 05:24:06;;;;;;;;;;;;;;;;;;4345961;33;19939;-70
2022/01/21 05:26:37;;;;;;;;;;;;;;;;;;4346205;33;19951;-70
2022/01/21 05:29:02;;;;;;;;;;;;;;;;;;4333331;33;19940;-69
2022/01/21 05:31:27;;;;;;;;;;;;;;;;;;4346749;33;19949;-69
2022/01/21 05:33:52;;;;;;;;;;;;;;;;;;4333852;33;19950;-69
2022/01/21 05:36:18;;;;;;;;;;;;;;;;;;4346979;33;19935;-69
2022/01/21 05:38:43;;;;;;;;;;;;;;;;;;4345645;33;19982;-70
2022/01/21 05:41:08;;;;;;;;;;;;;;;;;;4333576;33;19953;-69
2022/01/21 05:43:34;;;;;;;;;;;;;;;;;;4346375;33;20284;-70
2022/01/21 05:48:43;;;;;;;;;;;;;;;;;;4317899;33;19941;-70
2022/01/21 05:51:08;;;;;;;;;;;;;;;;;;4316612;33;19944;-70
2022/01/21 05:53:33;;;;;;;;;;;;;;;;;;4317274;33;20294;-68
2022/01/21 05:56:02;;;;;;;;;;;;;;;;;;4318352;33;19939;-69
2022/01/21 05:58:27;;;;;;;;;;;;;;;;;;4318103;33;19939;-70
2022/01/21 06:00:52;;;;;;;;;;;;;;;;;;4331031;33;19949;-70
2022/01/21 06:03:17;;;;;;;;;;;;;;;;;;4344091;33;19994;-70
2022/01/21 06:05:42;;;;;;;;;;;;;;;;;;4319999;33;20002;-70
2022/01/21 06:08:07;;;;;;;;;;;;;;;;;;4318675;33;19943;-69
2022/01/21 06:10:32;;;;;;;;;;;;;;;;;;4331906;33;19974;-68
2022/01/21 06:12:57;;;;;;;;;;;;;;;;;;4332607;33;20321;-70
2022/01/21 06:15:23;;;;;;;;;;;;;;;;;;4331519;33;19987;-69
2022/01/21 06:17:48;;;;;;;;;;;;;;;;;;4330784;33;19947;-69
2022/01/21 06:20:13;;;;;;;;;;;;;;;;;;4343362;33;19939;-68
2022/01/21 06:22:38;;;;;;;;;;;;;;;;;;4332552;33;19943;-70
2022/01/21 06:25:03;;;;;;;;;;;;;;;;;;4346775;33;19998;-70
2022/01/21 06:27:30;;;;;;;;;;;;;;;;;;4335513;33;19977;-69
2022/01/21 06:29:55;;;;;;;;;;;;;;;;;;4333511;33;19935;-68
2022/01/21 06:32:21;;;;;;;;;;;;;;;;;;4321257;33;20008;-69
2022/01/21 06:34:46;;;;;;;;;;;;;;;;;;4319689;33;19946;-69
2022/01/21 06:37:11;;;;;;;;;;;;;;;;;;4319693;33;19971;-69
2022/01/21 06:39:36;;;;;;;;;;;;;;;;;;4319825;33;20002;-68
2022/01/21 06:42:01;;;;;;;;;;;;;;;;;;4339010;33;20375;-69
2022/01/21 06:44:26;;;;;;;;;;;;;;;;;;4338887;33;19965;-68
2022/01/21 06:46:51;;;;;;;;;;;;;;;;;;4333360;33;19974;-68
2022/01/21 06:49:16;;;;;;;;;;;;;;;;;;4333602;33;20040;-70
2022/01/21 06:51:41;;;;;;;;;;;;;;;;;;4320669;33;19953;-70
2022/01/21 06:54:07;;;;;;;;;;;;;;;;;;4333355;33;19946;-70
2022/01/21 06:56:32;;;;;;;;;;;;;;;;;;4334571;33;20336;-70
2022/01/21 06:58:57;;;;;;;;;;;;;;;;;;4319561;33;19935;-69
2022/01/21 07:01:23;;;;;;;;;;;;;;;;;;4320563;33;19939;-69
2022/01/21 07:03:48;;;;;;;;;;;;;;;;;;4334751;33;19954;-70
2022/01/21 07:06:13;;;;;;;;;;;;;;;;;;4333063;33;20256;-69
2022/01/21 07:08:38;;;;;;;;;;;;;;;;;;4334239;33;19955;-69
2022/01/21 07:11:03;;;;;;;;;;;;;;;;;;4332196;33;20265;-68
2022/01/21 07:13:28;;;;;;;;;;;;;;;;;;4341590;33;19947;-69
2022/01/21 07:15:53;;;;;;;;;;;;;;;;;;4334548;33;19939;-69
2022/01/21 07:18:18;;;;;;;;;;;;;;;;;;4334086;33;19947;-69
2022/01/21 07:20:43;;;;;;;;;;;;;;;;;;4332885;33;19935;-69
2022/01/21 07:23:09;;;;;;;;;;;;;;;;;;4326165;33;20301;-70
2022/01/21 07:25:34;;;;;;;;;;;;;;;;;;4347808;32;19970;-72
2022/01/21 07:28:00;;;;;;;;;;;;;;;;;;4347358;33;19942;-68
2022/01/21 07:30:25;;;;;;;;;;;;;;;;;;4346707;33;20237;-69
2022/01/21 07:32:50;;;;;;;;;;;;;;;;;;4348166;33;19935;-69
2022/01/21 07:35:18;;;;;;;;;;;;;;;;;;4348599;33;19934;-68
2022/01/21 07:37:43;;;;;;;;;;;;;;;;;;4347069;32;19955;-70
2022/01/21 07:40:08;;;;;;;;;;;;;;;;;;4344693;33;19949;-70
2022/01/21 07:42:33;;;;;;;;;;;;;;;;;;4348354;33;19952;-70
2022/01/21 07:44:59;;;;;;;;;;;;;;;;;;4346321;33;20316;-69
2022/01/21 07:47:24;;;;;;;;;;;;;;;;;;4346605;32;19986;-69
2022/01/21 07:49:49;;;;;;;;;;;;;;;;;;4345036;33;19943;-69
2022/01/21 07:52:15;;;;;;;;;;;;;;;;;;4345411;33;19938;-70
2022/01/21 07:54:40;;;;;;;;;;;;;;;;;;4354804;32;19950;-70
2022/01/21 07:57:05;;;;;;;;;;;;;;;;;;4358906;32;20003;-70
2022/01/21 07:59:30;;;;;;;;;;;;;;;;;;4347143;33;19974;-69
2022/01/21 08:01:57;;;;;;;;;;;;;;;;;;4348012;33;20364;-69
2022/01/21 08:04:22;;;;;;;;;;;;;;;;;;4347815;32;19965;-70
2022/01/21 08:06:47;;;;;;;;;;;;;;;;;;4346621;33;19970;-69
2022/01/21 08:09:12;;;;;;;;;;;;;;;;;;4345215;33;19947;-70
2022/01/21 08:11:37;;;;;;;;;;;;;;;;;;4344076;33;19947;-70
2022/01/21 08:14:02;;;;;;;;;;;;;;;;;;4345705;33;20001;-71
2022/01/21 08:16:27;;;;;;;;;;;;;;;;;;4346282;33;20260;-71
2022/01/21 08:18:54;;;;;;;;;;;;;;;;;;4342522;33;19985;-70
2022/01/21 08:21:19;;;;;;;;;;;;;;;;;;4352200;32;19946;-70
2022/01/21 08:23:44;;;;;;;;;;;;;;;;;;4348730;32;19938;-71
2022/01/21 08:26:09;;;;;;;;;;;;;;;;;;4346554;33;19946;-70
2022/01/21 08:28:34;;;;;;;;;;;;;;;;;;4345288;33;19947;-70
2022/01/21 08:30:59;;;;;;;;;;;;;;;;;;4346494;33;19935;-70
2022/01/21 08:33:25;;;;;;;;;;;;;;;;;;4346918;33;20277;-69
2022/01/21 08:35:50;;;;;;;;;;;;;;;;;;4345106;33;19978;-69
2022/01/21 08:38:15;;;;;;;;;;;;;;;;;;4344921;33;19981;-69
2022/01/21 08:40:41;;;;;;;;;;;;;;;;;;4346608;33;20269;-70
2022/01/21 08:43:06;;;;;;;;;;;;;;;;;;4343905;33;20293;-69
2022/01/21 08:45:32;;;;;;;;;;;;;;;;;;4346425;33;20008;-70
2022/01/21 08:47:57;;;;;;;;;;;;;;;;;;4347429;33;19935;-70
2022/01/21 08:50:22;;;;;;;;;;;;;;;;;;4346796;33;20375;-70
2022/01/21 08:52:47;;;;;;;;;;;;;;;;;;4345995;33;19938;-69
2022/01/21 08:55:13;;;;;;;;;;;;;;;;;;4345658;33;19981;-68
2022/01/21 08:57:39;;;;;;;;;;;;;;;;;;4347329;33;19934;-69
2022/01/21 09:00:04;;;;;;;;;;;;;;;;;;4346035;33;19977;-69
2022/01/21 09:02:29;;;;;;;;;;;;;;;;;;4346566;33;19943;-69
2022/01/21 09:04:55;;;;;;;;;;;;;;;;;;4347708;33;19944;-71
2022/01/21 09:07:20;;;;;;;;;;;;;;;;;;4345854;33;19939;-69
2022/01/21 09:09:45;;;;;;;;;;;;;;;;;;4345914;33;19949;-70
2022/01/21 09:12:11;;;;;;;;;;;;;;;;;;4345627;33;20010;-70
2022/01/21 09:14:36;;;;;;;;;;;;;;;;;;4345881;33;19965;-70
2022/01/21 09:17:01;;;;;;;;;;;;;;;;;;4346006;33;19935;-69
2022/01/21 09:19:26;;;;;;;;;;;;;;;;;;4345220;33;19939;-70
2022/01/21 09:21:51;;;;;;;;;;;;;;;;;;4347498;33;20131;-70
2022/01/21 09:24:16;;;;;;;;;;;;;;;;;;4345492;32;19939;-69
2022/01/21 09:26:43;;;;;;;;;;;;;;;;;;4347166;33;19993;-70
2022/01/21 09:29:08;;;;;;;;;;;;;;;;;;4345498;33;19939;-70
2022/01/21 09:31:33;;;;;;;;;;;;;;;;;;4331989;33;19938;-69
2022/01/21 09:33:58;;;;;;;;;;;;;;;;;;4346194;33;19934;-70
2022/01/21 09:36:23;;;;;;;;;;;;;;;;;;4347515;33;19991;-70
2022/01/21 09:38:48;;;;;;;;;;;;;;;;;;4347042;33;19950;-70
2022/01/21 09:41:15;;;;;;;;;;;;;;;;;;4345323;33;19945;-68
2022/01/21 09:43:40;;;;;;;;;;;;;;;;;;4345090;33;20315;-69
2022/01/21 09:46:07;;;;;;;;;;;;;;;;;;4345816;33;19942;-70
2022/01/21 09:48:37;;;;;;;;;;;;;;;;;;4344906;33;19958;-69
2022/01/21 09:51:02;;;;;;;;;;;;;;;;;;4345080;33;19958;-69
2022/01/21 09:53:27;;;;;;;;;;;;;;;;;;4333100;33;20359;-69
2022/01/21 09:55:52;;;;;;;;;;;;;;;;;;4333190;33;19977;-71
2022/01/21 09:58:18;;;;;;;;;;;;;;;;;;4345230;33;19935;-70
2022/01/21 10:00:43;;;;;;;;;;;;;;;;;;4345964;33;19934;-71
2022/01/21 10:03:09;;;;;;;;;;;;;;;;;;4344976;33;19943;-69
2022/01/21 10:05:34;;;;;;;;;;;;;;;;;;4331374;33;19999;-69
2022/01/21 10:07:59;;;;;;;;;;;;;;;;;;4346911;33;19943;-69
2022/01/21 10:10:24;;;;;;;;;;;;;;;;;;4344728;33;19947;-69
2022/01/21 10:12:50;;;;;;;;;;;;;;;;;;4345758;33;19970;-69
2022/01/21 10:15:15;;;;;;;;;;;;;;;;;;4344726;33;19982;-70
2022/01/21 10:17:40;;;;;;;;;;;;;;;;;;4344747;33;19996;-70
2022/01/21 10:20:05;;;;;;;;;;;;;;;;;;4332808;33;19974;-70
2022/01/21 10:22:30;;;;;;;;;;;;;;;;;;4346350;33;19982;-71
2022/01/21 10:24:57;;;;;;;;;;;;;;;;;;4344932;33;19943;-70
2022/01/21 10:27:23;;;;;;;;;;;;;;;;;;4346895;33;19945;-71
2022/01/21 10:29:48;;;;;;;;;;;;;;;;;;4346729;33;19939;-70
2022/01/21 10:32:13;;;;;;;;;;;;;;;;;;4345425;33;19957;-70
2022/01/21 10:34:41;;;;;;;;;;;;;;;;;;4346351;33;19951;-70
2022/01/21 10:37:10;;;;;;;;;;;;;;;;;;4345734;33;19977;-70
2022/01/21 10:39:35;;;;;;;;;;;;;;;;;;4331610;33;19931;-70
2022/01/21 10:42:00;;;;;;;;;;;;;;;;;;4344772;33;19997;-70
2022/01/21 10:44:28;;;;;;;;;;;;;;;;;;4346305;33;20318;-70
2022/01/21 10:46:53;;;;;;;;;;;;;;;;;;4333005;33;19966;-69
2022/01/21 10:49:18;;;;;;;;;;;;;;;;;;4345622;33;19995;-69
2022/01/21 10:51:43;;;;;;;;;;;;;;;;;;4332679;33;19954;-69
2022/01/21 10:54:08;;;;;;;;;;;;;;;;;;4346140;33;19950;-70
2022/01/21 10:56:33;;;;;;;;;;;;;;;;;;4345980;33;20338;-68
2022/01/21 10:58:59;;;;;;;;;;;;;;;;;;4344799;33;19974;-70
2022/01/21 11:01:26;;;;;;;;;;;;;;;;;;4346524;33;19935;-70
2022/01/21 11:03:52;;;;;;;;;;;;;;;;;;4330871;33;19971;-70
2022/01/21 11:06:21;;;;;;;;;;;;;;;;;;4345375;33;19998;-69
2022/01/21 11:08:46;;;;;;;;;;;;;;;;;;4345246;33;20002;-70
2022/01/21 11:11:12;;;;;;;;;;;;;;;;;;4344610;33;19974;-70
2022/01/21 11:13:37;;;;;;;;;;;;;;;;;;4344345;33;20292;-69
2022/01/21 11:16:02;;;;;;;;;;;;;;;;;;4335097;33;19969;-69
2022/01/21 11:18:29;;;;;;;;;;;;;;;;;;4349082;33;19935;-70
2022/01/21 11:20:57;;;;;;;;;;;;;;;;;;4347008;33;19978;-69
2022/01/21 11:23:23;;;;;;;;;;;;;;;;;;4346924;33;20301;-70
2022/01/21 11:25:48;;;;;;;;;;;;;;;;;;4333668;33;19931;-70
2022/01/21 11:28:13;;;;;;;;;;;;;;;;;;4349020;33;20303;-70
2022/01/21 11:30:38;;;;;;;;;;;;;;;;;;4348126;33;19958;-70
2022/01/21 11:33:03;;;;;;;;;;;;;;;;;;4347433;33;19938;-70
2022/01/21 11:35:28;;;;;;;;;;;;;;;;;;4333240;33;19939;-71
2022/01/21 11:37:53;;;;;;;;;;;;;;;;;;4347346;33;20412;-70
2022/01/21 11:40:19;;;;;;;;;;;;;;;;;;4347736;33;20051;-70
2022/01/21 11:42:44;;;;;;;;;;;;;;;;;;4346998;33;20253;-69
2022/01/21 11:45:30;;;;;;;;;;;;;;;;;;4348321;33;19949;-70
2022/01/21 11:50:38;;;;;;;;;;;;;;;;;;4348270;33;19973;-70
2022/01/21 11:53:05;;;;;;;;;;;;;;;;;;4337076;33;19959;-70
2022/01/21 11:55:30;;;;;;;;;;;;;;;;;;4320832;33;19934;-70
2022/01/21 11:57:55;;;;;;;;;;;;;;;;;;4318875;33;19986;-70
2022/01/21 12:00:20;;;;;;;;;;;;;;;;;;4333194;33;19939;-70
2022/01/21 12:02:45;;;;;;;;;;;;;;;;;;4331791;33;19950;-70
2022/01/21 12:05:10;;;;;;;;;;;;;;;;;;4332892;33;19950;-69
2022/01/21 12:07:36;;;;;;;;;;;;;;;;;;4332871;33;19969;-69
2022/01/21 12:10:01;;;;;;;;;;;;;;;;;;4318604;33;19967;-69
2022/01/21 12:12:27;;;;;;;;;;;;;;;;;;4318142;33;19943;-70
2022/01/21 12:14:59;;;;;;;;;;;;;;;;;;4333097;33;19969;-69
2022/01/21 12:17:30;;;;;;;;;;;;;;;;;;4331733;33;19945;-70
2022/01/21 12:19:57;;;;;;;;;;;;;;;;;;4331711;33;19978;-70
2022/01/21 12:22:22;;;;;;;;;;;;;;;;;;4332109;33;19966;-70
2022/01/21 12:24:47;;;;;;;;;;;;;;;;;;4345985;33;19991;-69
2022/01/21 12:27:13;;;;;;;;;;;;;;;;;;4345681;33;20318;-70
2022/01/21 12:29:39;;;;;;;;;;;;;;;;;;4347514;33;19992;-69
2022/01/21 12:32:12;;;;;;;;;;;;;;;;;;4333019;33;19951;-71
2022/01/21 12:34:39;;;;;;;;;;;;;;;;;;4347882;33;19939;-71
2022/01/21 12:37:05;;;;;;;;;;;;;;;;;;4346537;33;19949;-70
2022/01/21 12:39:30;;;;;;;;;;;;;;;;;;4345164;33;19947;-69
2022/01/21 12:41:55;;;;;;;;;;;;;;;;;;4346843;33;19935;-70
2022/01/21 12:44:20;;;;;;;;;;;;;;;;;;4346427;33;19943;-70
2022/01/21 12:46:45;;;;;;;;;;;;;;;;;;4346346;33;20283;-69
2022/01/21 12:49:10;;;;;;;;;;;;;;;;;;4347466;33;19942;-69
2022/01/21 12:51:56;;;;;;;;;;;;;;;;;;4345904;33;19949;-69
2022/01/21 12:57:04;;;;;;;;;;;;;;;;;;4345782;33;19977;-69
2022/01/21 12:59:29;;;;;;;;;;;;;;;;;;4345830;33;19962;-70
2022/01/21 13:01:56;;;;;;;;;;;;;;;;;;4347492;33;19934;-70
2022/01/21 13:04:21;;;;;;;;;;;;;;;;;;4345701;33;19977;-69
2022/01/21 13:06:46;;;;;;;;;;;;;;;;;;4332046;33;20264;-70
2022/01/21 13:09:12;;;;;;;;;;;;;;;;;;4346421;33;19969;-69
2022/01/21 13:11:40;;;;;;;;;;;;;;;;;;4333011;33;20276;-70
2022/01/21 13:14:23;;;;;;;;;;;;;;;;;;4346212;33;19950;-69
2022/01/21 13:16:48;;;;;;;;;;;;;;;;;;4345673;33;19970;-69
2022/01/21 13:19:13;;;;;;;;;;;;;;;;;;4345496;33;19955;-70
2022/01/21 13:21:39;;;;;;;;;;;;;;;;;;4345305;33;19946;-69
2022/01/21 13:24:13;;;;;;;;;;;;;;;;;;4344570;33;19946;-70
2022/01/21 13:26:39;;;;;;;;;;;;;;;;;;4345005;33;19931;-70
2022/01/21 13:29:04;;;;;;;;;;;;;;;;;;4346929;32;19986;-69
2022/01/21 13:31:29;;;;;;;;;;;;;;;;;;4346296;33;19939;-70
2022/01/21 13:33:54;;;;;;;;;;;;;;;;;;4343996;33;20261;-71
2022/01/21 13:36:19;;;;;;;;;;;;;;;;;;4345315;33;19934;-71
2022/01/21 13:38:45;;;;;;;;;;;;;;;;;;4344247;33;19993;-69
2022/01/21 13:41:13;;;;;;;;;;;;;;;;;;4345712;33;19938;-70
2022/01/21 13:43:38;;;;;;;;;;;;;;;;;;4346045;32;19938;-70
2022/01/21 13:46:03;;;;;;;;;;;;;;;;;;4346797;33;19974;-71
2022/01/21 13:48:28;;;;;;;;;;;;;;;;;;4345205;33;19935;-69
2022/01/21 13:50:53;;;;;;;;;;;;;;;;;;4346585;33;19998;-69
2022/01/21 13:53:18;;;;;;;;;;;;;;;;;;4346300;33;19939;-70
2022/01/21 13:55:44;;;;;;;;;;;;;;;;;;4343929;33;19939;-70
2022/01/21 13:58:09;;;;;;;;;;;;;;;;;;4344787;33;20241;-71
2022/01/21 14:00:34;;;;;;;;;;;;;;;;;;4341987;32;19935;-70
2022/01/21 14:02:59;;;;;;;;;;;;;;;;;;4341405;33;19954;-70
2022/01/21 14:05:24;;;;;;;;;;;;;;;;;;4348035;32;19947;-70
2022/01/21 14:07:49;;;;;;;;;;;;;;;;;;4348969;32;19936;-70
2022/01/21 14:10:15;;;;;;;;;;;;;;;;;;4355176;32;19954;-69
2022/01/21 14:12:40;;;;;;;;;;;;;;;;;;4354709;32;20326;-71
2022/01/21 14:15:05;;;;;;;;;;;;;;;;;;4345207;33;19972;-69
2022/01/21 14:17:30;;;;;;;;;;;;;;;;;;4355623;33;19998;-70
2022/01/21 14:19:55;;;;;;;;;;;;;;;;;;4344706;33;19939;-70
2022/01/21 14:22:20;;;;;;;;;;;;;;;;;;4345109;33;19966;-70
2022/01/21 14:24:45;;;;;;;;;;;;;;;;;;4358169;32;20002;-71
2022/01/21 14:27:10;;;;;;;;;;;;;;;;;;4344763;33;20080;-71
2022/01/21 14:29:36;;;;;;;;;;;;;;;;;;4345058;33;19935;-70
2022/01/21 14:32:01;;;;;;;;;;;;;;;;;;4356105;32;19953;-70
2022/01/21 14:34:27;;;;;;;;;;;;;;;;;;4343321;33;19943;-70
2022/01/21 14:36:52;;;;;;;;;;;;;;;;;;4347103;33;19996;-71
2022/01/21 14:39:17;;;;;;;;;;;;;;;;;;4362156;32;19938;-70
2022/01/21 14:41:42;;;;;;;;;;;;;;;;;;4351106;33;19970;-71
2022/01/21 14:44:08;;;;;;;;;;;;;;;;;;4341661;33;19934;-70
2022/01/21 14:46:33;;;;;;;;;;;;;;;;;;4335042;33;19994;-70
2022/01/21 14:48:58;;;;;;;;;;;;;;;;;;4344798;33;19939;-71
2022/01/21 14:51:24;;;;;;;;;;;;;;;;;;4346101;33;19973;-71
2022/01/21 14:53:54;;;;;;;;;;;;;;;;;;4345327;33;20276;-71
2022/01/21 14:56:19;;;;;;;;;;;;;;;;;;4346511;32;19950;-70
2022/01/21 14:58:45;;;;;;;;;;;;;;;;;;4345445;32;19977;-70
2022/01/21 15:01:11;;;;;;;;;;;;;;;;;;4345803;33;20321;-70
2022/01/21 15:03:37;;;;;;;;;;;;;;;;;;4358067;32;19982;-70
2022/01/21 15:06:02;;;;;;;;;;;;;;;;;;4347321;32;19977;-70
2022/01/21 15:08:27;;;;;;;;;;;;;;;;;;4347069;33;19956;-71
2022/01/21 15:11:02;;;;;;;;;;;;;;;;;;4358305;33;19935;-70
2022/01/21 15:16:11;;;;;;;;;;;;;;;;;;4347568;33;19938;-70
2022/01/21 15:18:36;;;;;;;;;;;;;;;;;;4347563;33;19939;-71
2022/01/21 15:21:01;;;;;;;;;;;;;;;;;;4348894;33;20371;-70
2022/01/21 15:23:27;;;;;;;;;;;;;;;;;;4354089;32;19949;-70
2022/01/21 15:25:52;;;;;;;;;;;;;;;;;;4345341;32;20272;-71
2022/01/21 15:28:18;;;;;;;;;;;;;;;;;;4345679;33;20285;-70
2022/01/21 15:30:43;;;;;;;;;;;;;;;;;;4358547;32;19970;-70
2022/01/21 15:33:08;;;;;;;;;;;;;;;;;;4344480;33;19981;-70
2022/01/21 15:35:33;;;;;;;;;;;;;;;;;;4347172;33;19946;-70
2022/01/21 15:37:59;;;;;;;;;;;;;;;;;;4358563;32;19973;-72
2022/01/21 15:40:24;;;;;;;;;;;;;;;;;;4346309;33;19939;-70
2022/01/21 15:42:49;;;;;;;;;;;;;;;;;;4346606;33;20339;-70
2022/01/21 15:45:15;;;;;;;;;;;;;;;;;;4347081;33;19945;-68
2022/01/21 15:47:40;;;;;;;;;;;;;;;;;;4348016;33;19972;-69
2022/01/21 15:50:05;;;;;;;;;;;;;;;;;;4343868;33;20006;-71
2022/01/21 15:52:30;;;;;;;;;;;;;;;;;;4355722;32;19985;-70
2022/01/21 15:54:55;;;;;;;;;;;;;;;;;;4346728;33;19939;-70
2022/01/21 15:57:20;;;;;;;;;;;;;;;;;;4345224;33;19939;-69
2022/01/21 15:59:45;;;;;;;;;;;;;;;;;;4346268;32;19946;-69
2022/01/21 16:02:10;;;;;;;;;;;;;;;;;;4347020;33;20070;-70
2022/01/21 16:04:35;;;;;;;;;;;;;;;;;;4346554;33;19935;-69
2022/01/21 16:07:00;;;;;;;;;;;;;;;;;;4352098;33;20316;-70
2022/01/21 16:09:25;;;;;;;;;;;;;;;;;;4345764;33;19977;-71
2022/01/21 16:11:52;;;;;;;;;;;;;;;;;;4345744;33;20324;-69
2022/01/21 16:14:18;;;;;;;;;;;;;;;;;;4344958;33;20293;-70
2022/01/21 16:16:43;;;;;;;;;;;;;;;;;;4345127;33;19941;-71
2022/01/21 16:19:09;;;;;;;;;;;;;;;;;;4345181;33;19969;-68
2022/01/21 16:21:34;;;;;;;;;;;;;;;;;;4342970;33;19955;-70
2022/01/21 16:23:59;;;;;;;;;;;;;;;;;;4342928;33;19954;-70
2022/01/21 16:26:24;;;;;;;;;;;;;;;;;;4339752;33;19955;-70
2022/01/21 16:28:49;;;;;;;;;;;;;;;;;;4326569;33;19939;-71
2022/01/21 16:31:14;;;;;;;;;;;;;;;;;;4336727;33;19958;-72
2022/01/21 16:33:40;;;;;;;;;;;;;;;;;;4331345;33;19959;-72
2022/01/21 16:36:05;;;;;;;;;;;;;;;;;;4329677;33;19961;-72
2022/01/21 16:38:30;;;;;;;;;;;;;;;;;;4317342;33;19994;-72
2022/01/21 16:40:55;;;;;;;;;;;;;;;;;;4332619;33;19947;-73
2022/01/21 16:43:20;;;;;;;;;;;;;;;;;;4340822;33;19977;-72
2022/01/21 16:45:46;;;;;;;;;;;;;;;;;;4332785;33;20058;-72
2022/01/21 16:48:11;;;;;;;;;;;;;;;;;;4332916;33;19986;-72
2022/01/21 16:50:36;;;;;;;;;;;;;;;;;;4333674;33;19992;-72
2022/01/21 16:53:01;;;;;;;;;;;;;;;;;;4347352;33;20017;-72
2022/01/21 16:55:26;;;;;;;;;;;;;;;;;;4332594;33;20297;-73
2022/01/21 16:57:54;;;;;;;;;;;;;;;;;;4331112;33;19974;-73
2022/01/21 17:00:20;;;;;;;;;;;;;;;;;;4334160;33;19945;-73
2022/01/21 17:02:45;;;;;;;;;;;;;;;;;;4346247;33;19942;-72
2022/01/21 17:05:10;;;;;;;;;;;;;;;;;;4344951;33;20317;-71
2022/01/21 17:07:35;;;;;;;;;;;;;;;;;;4345489;33;19939;-72
2022/01/21 17:10:00;;;;;;;;;;;;;;;;;;4343156;33;20013;-73
2022/01/21 17:12:25;;;;;;;;;;;;;;;;;;4330576;33;19943;-74
2022/01/21 17:14:50;;;;;;;;;;;;;;;;;;4329784;33;19939;-73
2022/01/21 17:17:15;;;;;;;;;;;;;;;;;;4332780;33;19953;-73
2022/01/21 17:19:40;;;;;;;;;;;;;;;;;;4330050;33;19994;-73
2022/01/21 17:22:05;;;;;;;;;;;;;;;;;;4329716;33;19957;-72
2022/01/21 17:24:30;;;;;;;;;;;;;;;;;;4343754;33;20313;-73
2022/01/21 17:26:56;;;;;;;;;;;;;;;;;;4344344;33;19994;-72
2022/01/21 17:29:21;;;;;;;;;;;;;;;;;;4345137;33;19943;-73
2022/01/21 17:31:46;;;;;;;;;;;;;;;;;;4344498;33;19948;-73